Time;durP1;ratioP1;P1;durP2;ratioP2;P2;SDS_P1;SDS_P2;PMS_P1;PMS_P2;Temp;Humidity;BMP_temperature;BMP_pressure;BME280_temperature;BME280_humidity;BME280_pressure;Samples;Min_cycle;Max_cycle;Signal;HPM_P1;HPM_P2
2023/04/02 00:02:19;;;;;;;0.00;0.00;;;5.20;82.70;;;;;;4971567;28;20133;-67
2023/04/02 00:05:14;;;;;;;0.00;0.00;;;5.10;82.60;;;;;;4970900;28;20050;-67
2023/04/02 00:07:43;;;;;;;0.00;0.00;;;5.10;82.80;;;;;;4970762;28;20712;-67
2023/04/02 00:10:33;;;;;;;0.00;0.00;;;5.00;82.80;;;;;;4970643;28;20051;-67
2023/04/02 00:13:04;;;;;;;0.00;0.00;;;5.20;82.90;;;;;;4971010;28;20050;-67
2023/04/02 00:15:30;;;;;;;0.22;0.22;;;5.00;82.30;;;;;;4953562;28;20522;-67
2023/04/02 00:17:57;;;;;;;0.10;0.10;;;4.90;82.80;;;;;;4970803;28;20141;-68
2023/04/02 00:20:24;;;;;;;0.00;0.00;;;4.90;82.60;;;;;;4970684;28;20057;-67
2023/04/02 00:22:50;;;;;;;0.00;0.00;;;4.90;83.00;;;;;;4953247;28;20047;-67
2023/04/02 00:25:15;;;;;;;0.00;0.00;;;4.90;83.10;;;;;;4970584;28;20054;-67
2023/04/02 00:27:42;;;;;;;0.00;0.00;;;4.90;82.60;;;;;;4970382;28;20050;-67
2023/04/02 00:30:11;;;;;;;0.90;0.90;;;4.90;82.70;;;;;;4970133;28;20538;-68
2023/04/02 00:32:37;;;;;;;0.10;0.10;;;5.00;82.20;;;;;;4969083;28;20446;-67
2023/04/02 00:35:16;;;;;;;0.00;0.00;;;4.80;82.20;;;;;;4970554;28;20047;-67
2023/04/02 00:37:43;;;;;;;0.10;0.10;;;4.70;82.40;;;;;;4970620;28;20051;-68
2023/04/02 00:40:19;;;;;;;0.00;0.00;;;4.70;82.00;;;;;;4969459;28;20592;-68
2023/04/02 00:42:46;;;;;;;0.20;0.20;;;4.80;82.20;;;;;;4970595;28;20039;-67
2023/04/02 00:45:18;;;;;;;0.00;0.00;;;4.70;82.40;;;;;;4970009;28;20038;-67
2023/04/02 00:47:44;;;;;;;0.00;0.00;;;4.60;82.50;;;;;;4936806;28;20059;-68
2023/04/02 00:50:15;;;;;;;0.10;0.10;;;4.60;82.60;;;;;;4969856;28;20122;-67
2023/04/02 00:52:45;;;;;;;0.00;0.00;;;4.60;82.70;;;;;;4970218;28;20578;-67
2023/04/02 00:55:22;;;;;;;0.00;0.00;;;4.70;82.60;;;;;;4970333;28;20053;-67
2023/04/02 00:57:49;;;;;;;0.35;0.35;;;4.60;82.00;;;;;;4970126;28;20085;-68
2023/04/02 01:00:29;;;;;;;0.00;0.00;;;4.60;82.30;;;;;;4970333;28;20042;-67
2023/04/02 01:03:16;;;;;;;0.00;0.00;;;4.60;82.60;;;;;;4970698;28;20066;-67
2023/04/02 01:05:49;;;;;;;0.00;0.00;;;4.60;82.40;;;;;;4970232;28;20078;-67
2023/04/02 01:08:20;;;;;;;0.00;0.00;;;4.60;82.30;;;;;;4952909;28;20129;-67
2023/04/02 01:11:07;;;;;;;0.10;0.10;;;4.60;82.30;;;;;;4970387;28;20404;-67
2023/04/02 01:13:40;;;;;;;0.00;0.00;;;4.60;82.20;;;;;;4970093;28;20039;-67
2023/04/02 01:16:29;;;;;;;0.00;0.00;;;4.50;81.70;;;;;;4970032;28;20105;-67
2023/04/02 01:19:07;;;;;;;0.05;0.05;;;4.30;81.80;;;;;;4969665;28;20046;-67
2023/04/02 01:21:52;;;;;;;0.00;0.00;;;4.20;82.10;;;;;;4969525;28;20031;-68
2023/04/02 01:24:19;;;;;;;0.00;0.00;;;4.20;82.30;;;;;;4969715;28;20039;-67
2023/04/02 01:26:47;;;;;;;0.00;0.00;;;4.10;82.10;;;;;;4969991;28;20177;-68
2023/04/02 01:29:19;;;;;;;0.00;0.00;;;4.10;82.40;;;;;;4969596;28;20112;-68
2023/04/02 01:31:45;;;;;;;0.00;0.00;;;4.00;82.40;;;;;;4950843;29;20069;-68
2023/04/02 01:34:15;;;;;;;0.00;0.00;;;3.90;82.60;;;;;;4967928;28;20057;-67
2023/04/02 01:36:56;;;;;;;0.00;0.00;;;3.90;82.70;;;;;;4969714;28;20046;-67
2023/04/02 01:39:29;;;;;;;0.08;0.08;;;4.00;82.60;;;;;;4969683;28;20043;-67
2023/04/02 01:42:00;;;;;;;0.00;0.00;;;3.90;82.60;;;;;;4950892;29;20051;-68
2023/04/02 01:44:33;;;;;;;0.00;0.00;;;3.80;82.80;;;;;;4960925;28;20495;-68
2023/04/02 01:47:02;;;;;;;0.10;0.10;;;3.80;82.50;;;;;;4973902;28;20097;-68
2023/04/02 01:49:28;;;;;;;0.00;0.00;;;3.70;82.70;;;;;;4972821;28;20065;-68
2023/04/02 01:51:57;;;;;;;0.00;0.00;;;3.70;82.70;;;;;;4973017;28;20055;-67
2023/04/02 01:54:24;;;;;;;0.00;0.00;;;3.70;82.80;;;;;;4955630;28;20073;-68
2023/04/02 01:56:50;;;;;;;0.00;0.00;;;3.70;82.80;;;;;;4973445;28;20054;-68
2023/04/02 01:59:21;;;;;;;0.00;0.00;;;3.60;82.80;;;;;;4955685;28;20735;-67
2023/04/02 02:02:01;;;;;;;0.00;0.00;;;3.60;82.90;;;;;;4952911;28;20411;-68
2023/04/02 02:04:31;;;;;;;0.00;0.00;;;3.60;82.70;;;;;;4973243;28;20126;-67
2023/04/02 02:07:01;;;;;;;0.00;0.00;;;3.60;82.60;;;;;;4973117;28;20051;-68
2023/04/02 02:09:29;;;;;;;0.32;0.32;;;3.60;82.80;;;;;;4972932;28;20039;-67
2023/04/02 02:11:57;;;;;;;0.00;0.00;;;3.50;82.50;;;;;;4972764;28;21151;-68
2023/04/02 02:14:25;;;;;;;0.00;0.00;;;3.60;82.50;;;;;;4972614;28;20046;-67
2023/04/02 02:16:55;;;;;;;0.10;0.10;;;3.50;82.50;;;;;;4972918;28;20118;-67
2023/04/02 02:19:30;;;;;;;0.00;0.00;;;3.40;82.40;;;;;;4972890;28;20050;-67
2023/04/02 02:22:02;;;;;;;0.10;0.10;;;3.40;82.40;;;;;;4972845;28;21244;-67
2023/04/02 02:24:31;;;;;;;0.00;0.00;;;3.30;82.40;;;;;;4955499;28;20138;-67
2023/04/02 02:27:21;;;;;;;0.00;0.00;;;3.30;82.70;;;;;;4972256;28;20153;-68
2023/04/02 02:29:56;;;;;;;0.30;0.30;;;3.30;82.40;;;;;;4972553;28;20081;-68
2023/04/02 02:32:27;;;;;;;0.00;0.00;;;3.20;82.70;;;;;;4972819;28;20051;-68
2023/04/02 02:35:06;;;;;;;0.00;0.00;;;3.20;82.70;;;;;;4973254;28;20086;-67
2023/04/02 02:37:39;;;;;;;0.00;0.00;;;3.20;82.40;;;;;;4972214;28;20097;-67
2023/04/02 02:40:08;;;;;;;0.00;0.00;;;3.10;82.60;;;;;;4972731;28;20535;-68
2023/04/02 02:42:56;;;;;;;0.00;0.00;;;3.20;82.60;;;;;;4973022;28;20043;-68
2023/04/02 02:45:26;;;;;;;0.10;0.10;;;3.10;82.70;;;;;;4971599;28;20041;-68
2023/04/02 02:47:53;;;;;;;0.00;0.00;;;3.10;82.60;;;;;;4972528;28;20157;-68
2023/04/02 02:50:25;;;;;;;0.10;0.10;;;3.10;82.80;;;;;;4972357;28;20095;-67
2023/04/02 02:52:57;;;;;;;0.00;0.00;;;3.10;82.70;;;;;;4972216;28;20046;-67
2023/04/02 02:55:36;;;;;;;0.00;0.00;;;3.10;82.70;;;;;;4970848;28;20062;-68
2023/04/02 02:58:14;;;;;;;0.00;0.00;;;3.10;82.40;;;;;;4972025;28;20169;-67
2023/04/02 03:00:42;;;;;;;0.10;0.10;;;3.00;82.40;;;;;;4972372;28;20068;-67
2023/04/02 03:03:13;;;;;;;0.00;0.00;;;3.00;82.30;;;;;;4972663;28;20043;-67
2023/04/02 03:05:40;;;;;;;0.00;0.00;;;3.00;82.20;;;;;;4972163;28;20047;-67
2023/04/02 03:08:12;;;;;;;0.10;0.10;;;3.10;82.20;;;;;;4972261;28;20089;-67
2023/04/02 03:10:55;;;;;;;0.00;0.00;;;3.10;81.80;;;;;;4971940;28;20459;-67
2023/04/02 03:13:28;;;;;;;0.00;0.00;;;2.90;81.90;;;;;;4971958;28;20114;-68
2023/04/02 03:16:41;;;;;;;0.00;0.00;;;2.90;82.10;;;;;;4971386;28;20038;-67
2023/04/02 03:19:37;;;;;;;0.00;0.00;;;2.90;81.90;;;;;;4900759;29;20044;-67
2023/04/02 03:22:14;;;;;;;0.00;0.00;;;2.80;82.20;;;;;;4952848;28;20059;-67
2023/04/02 03:25:04;;;;;;;0.00;0.00;;;2.90;81.60;;;;;;4966682;28;20043;-67
2023/04/02 03:27:35;;;;;;;0.00;0.00;;;2.80;81.50;;;;;;4971704;28;20092;-67
2023/04/02 03:30:26;;;;;;;0.10;0.10;;;2.70;81.80;;;;;;4970959;28;20089;-67
2023/04/02 03:32:57;;;;;;;0.00;0.00;;;2.70;82.00;;;;;;4971780;28;20049;-68
2023/04/02 03:35:35;;;;;;;0.00;0.00;;;2.70;82.20;;;;;;4971077;28;20111;-67
2023/04/02 03:38:17;;;;;;;0.00;0.00;;;2.80;82.00;;;;;;4954210;28;20043;-68
2023/04/02 03:41:03;;;;;;;0.00;0.00;;;2.70;81.80;;;;;;4964692;28;20051;-68
2023/04/02 03:43:34;;;;;;;0.00;0.00;;;2.70;81.80;;;;;;4954122;28;20038;-68
2023/04/02 03:46:20;;;;;;;0.00;0.00;;;2.60;81.90;;;;;;4971136;28;20082;-67
2023/04/02 03:48:58;;;;;;;0.00;0.00;;;2.60;82.20;;;;;;4970978;28;20047;-68
2023/04/02 03:51:36;;;;;;;0.10;0.10;;;2.50;82.20;;;;;;4971846;28;20125;-68
2023/04/02 03:54:02;;;;;;;0.10;0.10;;;2.60;82.40;;;;;;4971156;28;20049;-67
2023/04/02 03:56:38;;;;;;;0.00;0.00;;;2.60;82.50;;;;;;4971771;28;20101;-68
2023/04/02 03:59:23;;;;;;;0.00;0.00;;;2.60;82.30;;;;;;4970974;28;20490;-67
2023/04/02 04:02:03;;;;;;;0.00;0.00;;;2.50;82.70;;;;;;4965293;28;20134;-68
2023/04/02 04:04:30;;;;;;;0.00;0.00;;;2.50;82.80;;;;;;4937876;28;20097;-68
2023/04/02 04:06:58;;;;;;;0.08;0.08;;;2.50;82.90;;;;;;4970240;28;20142;-67
2023/04/02 04:09:37;;;;;;;0.00;0.00;;;2.40;83.30;;;;;;4970342;28;20396;-68
2023/04/02 04:12:06;;;;;;;1.23;1.23;;;2.50;83.10;;;;;;4970888;28;20962;-67
2023/04/02 04:14:36;;;;;;;0.10;0.10;;;2.40;83.20;;;;;;4970545;28;20038;-68
2023/04/02 04:17:08;;;;;;;0.10;0.10;;;2.50;83.30;;;;;;4970459;28;20050;-67
2023/04/02 04:19:44;;;;;;;;;;;2.40;83.10;;;;;;4971283;28;20054;-67
2023/04/02 04:22:28;;;;;;;0.10;0.10;;;2.50;83.20;;;;;;4970801;28;19922;-67
2023/04/02 04:24:56;;;;;;;0.00;0.00;;;2.40;83.40;;;;;;4970268;28;20125;-68
2023/04/02 04:27:43;;;;;;;0.00;0.00;;;2.50;83.10;;;;;;4972849;28;20093;-67
2023/04/02 04:30:33;;;;;;;0.00;0.00;;;2.50;83.10;;;;;;4970219;28;20043;-68
2023/04/02 04:33:09;;;;;;;0.00;0.00;;;2.40;83.30;;;;;;4969812;28;20117;-67
2023/04/02 04:35:48;;;;;;;0.10;0.10;;;2.40;83.10;;;;;;4970320;28;20097;-68
2023/04/02 04:38:33;;;;;;;0.00;0.00;;;2.40;83.40;;;;;;4969789;28;20042;-67
2023/04/02 04:41:12;;;;;;;0.10;0.10;;;2.30;83.60;;;;;;4969706;28;20058;-68
2023/04/02 04:43:58;;;;;;;0.00;0.00;;;2.30;83.90;;;;;;4969530;28;20046;-67
2023/04/02 04:46:39;;;;;;;0.00;0.00;;;2.30;83.70;;;;;;4970404;28;20158;-68
2023/04/02 04:49:14;;;;;;;0.00;0.00;;;2.30;83.80;;;;;;4958576;28;20039;-67
2023/04/02 04:51:53;;;;;;;0.10;0.10;;;2.30;83.90;;;;;;4970514;28;20065;-67
2023/04/02 04:54:19;;;;;;;0.00;0.00;;;2.30;83.90;;;;;;4970218;28;20043;-68
2023/04/02 04:56:54;;;;;;;0.00;0.00;;;2.40;83.80;;;;;;4970357;28;20097;-67
2023/04/02 04:59:34;;;;;;;0.08;0.08;;;2.30;83.80;;;;;;4970277;28;20093;-67
2023/04/02 05:02:15;;;;;;;0.57;0.57;;;2.40;83.90;;;;;;4969249;28;20052;-68
2023/04/02 05:04:43;;;;;;;0.00;0.00;;;2.30;83.90;;;;;;4969304;28;20130;-68
2023/04/02 05:07:23;;;;;;;0.00;0.00;;;2.30;84.00;;;;;;4969405;28;20053;-69
2023/04/02 05:10:20;;;;;;;0.00;0.00;;;2.40;83.90;;;;;;4965700;28;20054;-68
2023/04/02 05:12:57;;;;;;;0.00;0.00;;;2.40;83.60;;;;;;4969666;28;20419;-68
2023/04/02 05:15:34;;;;;;;0.00;0.00;;;2.40;83.40;;;;;;4952075;28;20105;-68
2023/04/02 05:18:27;;;;;;;0.00;0.00;;;2.30;83.50;;;;;;4970548;28;20054;-68
2023/04/02 05:21:26;;;;;;;0.00;0.00;;;2.30;83.80;;;;;;4964841;28;20051;-69
2023/04/02 05:24:22;;;;;;;0.00;0.00;;;2.30;83.80;;;;;;4924128;29;20057;-69
2023/04/02 05:26:50;;;;;;;0.10;0.10;;;2.50;83.60;;;;;;4957066;28;20435;-68
2023/04/02 05:29:24;;;;;;;0.08;0.08;;;2.40;83.50;;;;;;4972916;28;20125;-68
2023/04/02 05:31:58;;;;;;;0.00;0.00;;;2.40;83.30;;;;;;4973407;28;20078;-68
2023/04/02 05:34:30;;;;;;;0.00;0.00;;;2.40;83.60;;;;;;4973446;28;20900;-68
2023/04/02 05:36:55;;;;;;;0.00;0.00;;;2.50;83.40;;;;;;4972981;28;20038;-68
2023/04/02 05:39:23;;;;;;;0.10;0.10;;;2.50;83.30;;;;;;4973186;28;20050;-68
2023/04/02 05:42:02;;;;;;;0.00;0.00;;;2.60;83.00;;;;;;4971956;28;20058;-68
2023/04/02 05:44:31;;;;;;;0.10;0.10;;;2.50;83.10;;;;;;4972639;28;20047;-68
2023/04/02 05:47:07;;;;;;;0.00;0.00;;;2.50;83.00;;;;;;4972546;28;20438;-68
2023/04/02 05:49:42;;;;;;;0.00;0.00;;;2.60;82.70;;;;;;4971484;28;20063;-68
2023/04/02 05:52:18;;;;;;;11.80;3.72;;;2.50;82.80;;;;;;4968256;28;20043;-68
2023/04/02 05:55:05;;;;;;;0.00;0.00;;;2.50;82.80;;;;;;4972556;28;20105;-69
2023/04/02 05:57:37;;;;;;;0.00;0.00;;;2.50;82.90;;;;;;4972560;28;20047;-68
2023/04/02 06:00:07;;;;;;;0.70;0.70;;;2.60;83.10;;;;;;4965289;28;20043;-68
2023/04/02 06:02:40;;;;;;;0.00;0.00;;;2.70;82.90;;;;;;4954777;28;20039;-69
2023/04/02 06:05:12;;;;;;;0.00;0.00;;;2.60;82.80;;;;;;4972581;28;20050;-68
2023/04/02 06:07:45;;;;;;;0.00;0.00;;;2.70;82.80;;;;;;4972912;28;20054;-68
2023/04/02 06:10:21;;;;;;;0.22;0.22;;;2.70;82.60;;;;;;4955516;28;20042;-68
2023/04/02 06:12:53;;;;;;;0.00;0.00;;;2.80;82.20;;;;;;4967849;28;20109;-68
2023/04/02 06:15:21;;;;;;;0.00;0.00;;;2.80;82.30;;;;;;4954916;28;20109;-68
2023/04/02 06:17:57;;;;;;;0.00;0.00;;;2.80;82.20;;;;;;4972567;28;20066;-68
2023/04/02 06:20:23;;;;;;;0.00;0.00;;;2.90;82.20;;;;;;4972913;28;20031;-68
2023/04/02 06:23:37;;;;;;;0.00;0.00;;;2.90;82.20;;;;;;4954878;28;20093;-68
2023/04/02 06:26:08;;;;;;;0.00;0.00;;;2.90;82.20;;;;;;4946664;29;20503;-68
2023/04/02 06:28:45;;;;;;;0.00;0.00;;;3.00;81.80;;;;;;4953136;28;20566;-68
2023/04/02 06:31:42;;;;;;;0.00;0.00;;;3.00;81.80;;;;;;4960639;28;20043;-68
2023/04/02 06:34:16;;;;;;;0.17;0.13;;;3.00;81.40;;;;;;4966710;28;20075;-68
2023/04/02 06:36:42;;;;;;;0.05;0.05;;;3.00;81.50;;;;;;4972798;28;20061;-68
2023/04/02 06:39:15;;;;;;;0.00;0.00;;;3.10;81.90;;;;;;4972379;28;20043;-68
2023/04/02 06:41:41;;;;;;;0.00;0.00;;;3.10;82.00;;;;;;4971435;28;20043;-68
2023/04/02 06:44:17;;;;;;;0.00;0.00;;;3.20;81.60;;;;;;4971465;28;20096;-68
2023/04/02 06:46:47;;;;;;;0.20;0.20;;;3.20;81.60;;;;;;4971049;28;20130;-66
2023/04/02 06:49:16;;;;;;;0.10;0.10;;;3.30;81.50;;;;;;4971242;28;20399;-68
2023/04/02 06:51:44;;;;;;;0.08;0.08;;;3.30;81.40;;;;;;4971535;28;20074;-68
2023/04/02 06:54:17;;;;;;;0.00;0.00;;;3.40;81.40;;;;;;4971358;28;20057;-68
2023/04/02 06:56:46;;;;;;;0.00;0.00;;;3.40;81.20;;;;;;4971083;28;20046;-68
2023/04/02 06:59:13;;;;;;;0.00;0.00;;;3.40;81.30;;;;;;4970229;28;20054;-67
2023/04/02 07:01:52;;;;;;;0.00;0.00;;;3.50;81.40;;;;;;4971006;28;20069;-67
2023/04/02 07:04:19;;;;;;;0.00;0.00;;;3.60;81.00;;;;;;4971275;28;20415;-68
2023/04/02 07:06:45;;;;;;;0.05;0.05;;;3.60;80.10;;;;;;4970888;28;20049;-67
2023/04/02 07:09:11;;;;;;;0.00;0.00;;;3.60;80.20;;;;;;4971119;28;20039;-67
2023/04/02 07:11:37;;;;;;;0.00;0.00;;;3.70;80.50;;;;;;4971503;28;20046;-67
2023/04/02 07:14:02;;;;;;;0.00;0.00;;;3.90;80.60;;;;;;4968116;28;20049;-67
2023/04/02 07:16:31;;;;;;;0.10;0.10;;;3.80;80.00;;;;;;4970242;28;20041;-67
2023/04/02 07:18:59;;;;;;;4.03;2.83;;;3.90;79.90;;;;;;4969310;28;20051;-68
2023/04/02 07:21:28;;;;;;;0.00;0.00;;;3.90;79.40;;;;;;4970423;28;20038;-67
2023/04/02 07:23:54;;;;;;;0.10;0.10;;;4.00;79.80;;;;;;4934832;28;20055;-67
2023/04/02 07:26:24;;;;;;;0.00;0.00;;;4.00;80.00;;;;;;4969398;28;20052;-67
2023/04/02 07:28:50;;;;;;;0.00;0.00;;;4.10;79.40;;;;;;4969612;28;20051;-67
2023/04/02 07:31:25;;;;;;;0.00;0.00;;;4.10;80.10;;;;;;4969904;28;20039;-67
2023/04/02 07:33:52;;;;;;;0.00;0.00;;;4.20;79.80;;;;;;4969348;28;20789;-67
2023/04/02 07:36:21;;;;;;;0.00;0.00;;;4.20;79.70;;;;;;4969902;28;20142;-67
2023/04/02 07:38:47;;;;;;;1.27;0.75;;;4.30;79.90;;;;;;4969047;28;20057;-67
2023/04/02 07:41:13;;;;;;;0.00;0.00;;;4.40;80.10;;;;;;4970291;28;20133;-67
2023/04/02 07:43:40;;;;;;;0.00;0.00;;;4.50;79.70;;;;;;4970658;28;20789;-67
2023/04/02 07:46:06;;;;;;;0.00;0.00;;;4.60;79.10;;;;;;4969587;28;20797;-67
2023/04/02 07:48:32;;;;;;;0.00;0.00;;;4.60;77.20;;;;;;4969385;28;20050;-67
2023/04/02 07:50:59;;;;;;;0.00;0.00;;;4.60;77.40;;;;;;4970403;28;20554;-67
2023/04/02 07:53:36;;;;;;;0.00;0.00;;;4.60;77.90;;;;;;4971614;28;20057;-68
2023/04/02 07:56:03;;;;;;;0.00;0.00;;;4.60;78.20;;;;;;4973107;28;20050;-67
2023/04/02 07:58:30;;;;;;;0.10;0.10;;;4.80;78.40;;;;;;4969723;28;20531;-68
2023/04/02 08:00:56;;;;;;;0.00;0.00;;;4.90;78.50;;;;;;4972248;28;20057;-68
2023/04/02 08:03:22;;;;;;;0.10;0.10;;;5.10;78.90;;;;;;4970620;28;20070;-67
2023/04/02 08:05:56;;;;;;;0.10;0.10;;;5.10;77.50;;;;;;4953620;28;20534;-67
2023/04/02 08:08:23;;;;;;;0.00;0.00;;;5.10;77.40;;;;;;4952903;28;20423;-67
2023/04/02 08:10:50;;;;;;;0.00;0.00;;;5.20;77.90;;;;;;4977843;28;20046;-68
2023/04/02 08:13:17;;;;;;;0.00;0.00;;;5.30;78.40;;;;;;4975971;28;20050;-67
2023/04/02 08:15:43;;;;;;;0.00;0.00;;;5.50;78.60;;;;;;4989672;28;20053;-67
2023/04/02 08:18:09;;;;;;;0.00;0.00;;;5.50;77.50;;;;;;4978592;28;20051;-67
2023/04/02 08:20:35;;;;;;;0.00;0.00;;;5.40;75.40;;;;;;4972855;28;20118;-67
2023/04/02 08:23:01;;;;;;;0.00;0.00;;;5.40;75.00;;;;;;4967369;28;20120;-68
2023/04/02 08:25:28;;;;;;;0.00;0.00;;;5.20;74.30;;;;;;4960763;28;20046;-67
2023/04/02 08:27:53;;;;;;;0.00;0.00;;;5.20;76.40;;;;;;4961765;28;20061;-67
2023/04/02 08:30:19;;;;;;;0.00;0.00;;;5.20;76.00;;;;;;4966381;28;20035;-67
2023/04/02 08:32:45;;;;;;;0.00;0.00;;;5.20;76.10;;;;;;4965116;28;20038;-67
2023/04/02 08:35:15;;;;;;;0.08;0.08;;;5.10;75.50;;;;;;4963857;28;20055;-67
2023/04/02 08:37:41;;;;;;;0.20;0.20;;;5.10;75.80;;;;;;4969821;28;20130;-67
2023/04/02 08:40:14;;;;;;;0.00;0.00;;;5.10;76.30;;;;;;4978681;28;20739;-66
2023/04/02 08:42:51;;;;;;;0.03;0.03;;;5.40;78.00;;;;;;4977296;28;20046;-66
2023/04/02 08:45:32;;;;;;;0.00;0.00;;;5.60;76.80;;;;;;4979077;28;20081;-67
2023/04/02 08:47:58;;;;;;;0.40;0.40;;;5.60;76.60;;;;;;4968517;28;20089;-64
2023/04/02 08:50:32;;;;;;;0.00;0.00;;;5.60;76.00;;;;;;4964888;28;20051;-67
2023/04/02 08:53:05;;;;;;;0.00;0.00;;;5.70;75.70;;;;;;4959095;28;20038;-68
2023/04/02 08:55:43;;;;;;;0.00;0.00;;;5.90;76.20;;;;;;4957995;28;20039;-68
2023/04/02 08:58:36;;;;;;;0.00;0.00;;;5.80;74.70;;;;;;4957594;28;20164;-68
2023/04/02 09:01:06;;;;;;;0.00;0.00;;;5.80;74.10;;;;;;4940816;28;20105;-67
2023/04/02 09:03:41;;;;;;;0.00;0.00;;;5.70;73.50;;;;;;4960491;28;20046;-68
2023/04/02 09:06:11;;;;;;;0.03;0.03;;;5.80;74.40;;;;;;4959383;28;20035;-65
2023/04/02 09:08:38;;;;;;;0.00;0.00;;;5.70;73.30;;;;;;4940369;28;20512;-65
2023/04/02 09:11:11;;;;;;;0.00;0.00;;;5.70;74.30;;;;;;4958796;28;20047;-67
2023/04/02 09:13:43;;;;;;;0.08;0.08;;;5.70;72.30;;;;;;4958384;28;20055;-64
2023/04/02 09:16:15;;;;;;;0.00;0.00;;;5.70;71.90;;;;;;4958095;28;20039;-65
2023/04/02 09:18:43;;;;;;;0.00;0.00;;;5.70;72.90;;;;;;4953872;28;20105;-65
2023/04/02 09:21:27;;;;;;;0.00;0.00;;;5.70;72.50;;;;;;4958381;28;20105;-66
2023/04/02 09:23:53;;;;;;;0.00;0.00;;;5.70;73.70;;;;;;4958539;28;20535;-65
2023/04/02 09:26:26;;;;;;;0.00;0.00;;;5.90;74.10;;;;;;4959229;28;20130;-66
2023/04/02 09:28:54;;;;;;;0.00;0.00;;;5.90;74.40;;;;;;4957622;28;20074;-64
2023/04/02 09:31:33;;;;;;;0.00;0.00;;;6.00;75.00;;;;;;4959823;28;20039;-66
2023/04/02 09:33:59;;;;;;;0.05;0.05;;;6.10;75.20;;;;;;4957269;28;20105;-66
2023/04/02 09:36:38;;;;;;;0.10;0.10;;;6.30;75.00;;;;;;4957473;28;20514;-65
2023/04/02 09:39:19;;;;;;;0.10;0.10;;;6.30;73.20;;;;;;4941192;28;20051;-64
2023/04/02 09:41:45;;;;;;;0.00;0.00;;;6.20;72.30;;;;;;4956417;28;20047;-65
2023/04/02 09:44:25;;;;;;;0.00;0.00;;;6.30;73.50;;;;;;4957561;28;20047;-66
2023/04/02 09:47:02;;;;;;;0.00;0.00;;;6.60;76.70;;;;;;4961574;28;20035;-66
2023/04/02 09:49:38;;;;;;;0.00;0.00;;;6.80;74.10;;;;;;4960972;28;20065;-70
2023/04/02 09:52:10;;;;;;;0.00;0.00;;;6.70;72.70;;;;;;4960452;28;20571;-66
2023/04/02 09:54:40;;;;;;;0.00;0.00;;;6.90;73.50;;;;;;4958863;28;20153;-65
2023/04/02 09:57:20;;;;;;;0.00;0.00;;;7.00;73.10;;;;;;4959749;28;20054;-66
2023/04/02 09:59:45;;;;;;;0.00;0.00;;;6.90;72.40;;;;;;4959376;28;20050;-65
2023/04/02 10:02:27;;;;;;;0.00;0.00;;;6.90;71.40;;;;;;4959197;28;20055;-65
2023/04/02 10:04:53;;;;;;;0.00;0.00;;;6.90;71.40;;;;;;4958908;28;20047;-66
2023/04/02 10:07:35;;;;;;;0.00;0.00;;;6.80;69.40;;;;;;4969558;28;20102;-61
2023/04/02 10:10:22;;;;;;;0.00;0.00;;;6.90;72.90;;;;;;4969187;28;20042;-66
2023/04/02 10:13:01;;;;;;;0.00;0.00;;;7.00;72.10;;;;;;4961605;28;20066;-64
2023/04/02 10:15:49;;;;;;;0.00;0.00;;;6.90;70.50;;;;;;4953104;28;20503;-66
2023/04/02 10:18:39;;;;;;;0.00;0.00;;;7.00;70.80;;;;;;4972041;28;20058;-67
2023/04/02 10:21:06;;;;;;;0.30;0.30;;;7.10;74.40;;;;;;4972419;28;20058;-67
2023/04/02 10:23:32;;;;;;;0.00;0.00;;;7.10;70.40;;;;;;4971651;28;20054;-67
2023/04/02 10:26:19;;;;;;;0.00;0.00;;;7.10;70.20;;;;;;4972152;28;20043;-68
2023/04/02 10:29:03;;;;;;;0.10;0.10;;;7.20;71.70;;;;;;4972413;28;20101;-67
2023/04/02 10:32:07;;;;;;;0.00;0.00;;;7.30;70.80;;;;;;4970513;28;20045;-66
2023/04/02 10:34:50;;;;;;;0.00;0.00;;;7.40;70.10;;;;;;4968357;28;20047;-68
2023/04/02 10:37:46;;;;;;;0.00;0.00;;;7.50;70.80;;;;;;4968974;28;20061;-68
2023/04/02 10:40:23;;;;;;;10.23;2.03;;;7.60;70.20;;;;;;4964659;28;20521;-68
2023/04/02 10:42:54;;;;;;;0.00;0.00;;;7.60;69.40;;;;;;4969902;28;20049;-68
2023/04/02 10:45:57;;;;;;;0.00;0.00;;;7.70;69.60;;;;;;4966008;28;20049;-67
2023/04/02 10:48:33;;;;;;;0.10;0.10;;;7.80;69.80;;;;;;4966690;28;20669;-68
2023/04/02 10:51:05;;;;;;;0.08;0.08;;;7.80;67.90;;;;;;4965180;28;20066;-68
2023/04/02 10:53:47;;;;;;;0.00;0.00;;;7.70;67.90;;;;;;4972005;28;20054;-68
2023/04/02 10:56:13;;;;;;;;;;;7.80;68.80;;;;;;4968199;28;20121;-68
2023/04/02 10:58:51;;;;;;;0.00;0.00;;;8.00;68.60;;;;;;4972909;28;19978;-69
2023/04/02 11:01:22;;;;;;;0.00;0.00;;;7.90;67.80;;;;;;4969719;28;21047;-67
2023/04/02 11:04:18;;;;;;;0.00;0.00;;;8.00;68.50;;;;;;4970381;28;20086;-66
2023/04/02 11:06:57;;;;;;;0.00;0.00;;;7.90;67.30;;;;;;4950762;28;20058;-66
2023/04/02 11:09:30;;;;;;;0.00;0.00;;;8.00;68.50;;;;;;4969595;28;20090;-66
2023/04/02 11:11:58;;;;;;;0.00;0.00;;;8.10;67.60;;;;;;4971049;28;20039;-66
2023/04/02 11:14:28;;;;;;;0.00;0.00;;;8.10;68.00;;;;;;4967568;28;20039;-69
2023/04/02 11:16:57;;;;;;;0.00;0.00;;;8.10;66.10;;;;;;4967532;28;20042;-66
2023/04/02 11:19:28;;;;;;;0.00;0.00;;;8.10;66.80;;;;;;4970848;28;20066;-66
2023/04/02 11:22:01;;;;;;;0.03;0.03;;;8.10;66.40;;;;;;4970355;28;20047;-67
2023/04/02 11:24:36;;;;;;;0.10;0.10;;;8.20;66.30;;;;;;4968881;28;20055;-68
2023/04/02 11:27:10;;;;;;;0.00;0.00;;;8.30;67.00;;;;;;4966872;28;20097;-68
2023/04/02 11:30:04;;;;;;;0.00;0.00;;;8.20;68.40;;;;;;4968688;28;20451;-67
2023/04/02 11:32:34;;;;;;;0.00;0.00;;;8.30;66.70;;;;;;4956084;28;20039;-68
2023/04/02 11:35:21;;;;;;;0.10;0.10;;;8.40;67.10;;;;;;4971559;28;20105;-68
2023/04/02 11:37:47;;;;;;;0.00;0.00;;;8.30;67.00;;;;;;4954147;28;20053;-67
2023/04/02 11:40:13;;;;;;;0.05;0.05;;;8.40;66.30;;;;;;4970930;28;20046;-67
2023/04/02 11:42:46;;;;;;;0.00;0.00;;;8.40;67.10;;;;;;4971679;28;20577;-67
2023/04/02 11:45:27;;;;;;;0.00;0.00;;;8.40;66.60;;;;;;4970990;28;20376;-68
2023/04/02 11:47:58;;;;;;;0.00;0.00;;;8.50;66.90;;;;;;4969613;28;20126;-68
2023/04/02 11:50:30;;;;;;;0.03;0.03;;;8.50;67.50;;;;;;4968104;28;20083;-67
2023/04/02 11:53:18;;;;;;;0.00;0.00;;;8.60;66.50;;;;;;4970170;28;20491;-67
2023/04/02 11:56:03;;;;;;;0.00;0.00;;;8.50;66.40;;;;;;4957660;28;20058;-67
2023/04/02 11:58:55;;;;;;;0.00;0.00;;;8.50;67.60;;;;;;4954470;28;20054;-67
2023/04/02 12:01:49;;;;;;;0.10;0.10;;;8.50;68.80;;;;;;4967944;28;20038;-67
2023/04/02 12:04:32;;;;;;;0.00;0.00;;;8.60;68.30;;;;;;4969894;28;20043;-68
2023/04/02 12:07:11;;;;;;;0.00;0.00;;;8.60;66.70;;;;;;4970993;28;20402;-67
2023/04/02 12:09:49;;;;;;;0.00;0.00;;;8.60;66.30;;;;;;4969822;28;20575;-67
2023/04/02 12:12:30;;;;;;;0.00;0.00;;;8.60;68.00;;;;;;4971170;28;20625;-67
2023/04/02 12:14:57;;;;;;;0.00;0.00;;;8.70;69.00;;;;;;4971017;28;20047;-67
2023/04/02 12:17:39;;;;;;;0.00;0.00;;;8.80;67.50;;;;;;4970898;28;20065;-67
2023/04/02 12:20:08;;;;;;;0.55;0.55;;;8.80;67.50;;;;;;4969786;28;20043;-67
2023/04/02 12:22:39;;;;;;;0.00;0.00;;;8.70;68.20;;;;;;4969011;28;20051;-67
2023/04/02 12:25:23;;;;;;;0.10;0.10;;;8.70;67.20;;;;;;4970528;28;20169;-67
2023/04/02 12:28:13;;;;;;;0.00;0.00;;;8.80;66.50;;;;;;4970417;28;20062;-67
2023/04/02 12:30:40;;;;;;;1.35;1.27;;;8.70;66.60;;;;;;4969443;28;20544;-67
2023/04/02 12:33:36;;;;;;;0.00;0.00;;;8.70;68.70;;;;;;4969958;28;20553;-67
2023/04/02 12:36:16;;;;;;;0.00;0.00;;;8.70;67.40;;;;;;4967817;28;20062;-67
2023/04/02 12:38:44;;;;;;;0.00;0.00;;;8.90;67.80;;;;;;4970071;28;21147;-69
2023/04/02 12:41:29;;;;;;;0.00;0.00;;;8.90;67.40;;;;;;4969506;28;20043;-67
2023/04/02 12:43:58;;;;;;;0.00;0.00;;;8.90;66.50;;;;;;4964250;28;20371;-68
2023/04/02 12:46:25;;;;;;;0.00;0.00;;;8.90;66.80;;;;;;4967262;28;20160;-68
2023/04/02 12:48:53;;;;;;;0.00;0.00;;;9.00;67.10;;;;;;4969118;28;20054;-68
2023/04/02 12:51:19;;;;;;;0.00;0.00;;;9.10;67.60;;;;;;4969495;28;20050;-67
2023/04/02 12:53:50;;;;;;;0.00;0.00;;;9.10;67.70;;;;;;4968516;28;20069;-67
2023/04/02 12:56:21;;;;;;;0.00;0.00;;;9.20;68.20;;;;;;4969191;28;20067;-68
2023/04/02 12:58:57;;;;;;;0.00;0.00;;;9.30;66.00;;;;;;4969222;28;20050;-68
2023/04/02 13:01:28;;;;;;;0.00;0.00;;;9.40;66.10;;;;;;4969108;28;20065;-67
2023/04/02 13:04:13;;;;;;;0.00;0.00;;;9.30;66.30;;;;;;4968928;28;20513;-68
2023/04/02 13:06:45;;;;;;;0.00;0.00;;;9.40;66.60;;;;;;4967354;28;20179;-67
2023/04/02 13:09:28;;;;;;;0.00;0.00;;;9.30;64.80;;;;;;4967790;28;20047;-68
2023/04/02 13:11:54;;;;;;;0.10;0.10;;;9.40;65.10;;;;;;4951920;28;20051;-67
2023/04/02 13:14:23;;;;;;;0.00;0.00;;;9.20;65.20;;;;;;4969022;28;20051;-68
2023/04/02 13:16:48;;;;;;;0.00;0.00;;;9.10;66.20;;;;;;4968394;28;20429;-68
2023/04/02 13:19:29;;;;;;;0.05;0.05;;;9.10;66.60;;;;;;4950932;28;20043;-68
2023/04/02 13:21:57;;;;;;;0.52;0.52;;;9.20;66.20;;;;;;4969145;28;20051;-68
2023/04/02 13:24:25;;;;;;;0.00;0.00;;;9.30;66.50;;;;;;4969102;28;20035;-69
2023/04/02 13:26:57;;;;;;;0.00;0.00;;;9.40;65.80;;;;;;4968942;28;20054;-68
2023/04/02 13:29:34;;;;;;;0.00;0.00;;;9.40;66.40;;;;;;4968811;28;20109;-69
2023/04/02 13:32:05;;;;;;;0.10;0.10;;;9.60;65.10;;;;;;4968985;28;20149;-68
2023/04/02 13:34:31;;;;;;;0.00;0.00;;;9.60;65.00;;;;;;4968147;28;20899;-68
2023/04/02 13:36:57;;;;;;;0.00;0.00;;;9.60;64.80;;;;;;4968887;28;20126;-69